Time;durP1;ratioP1;P1;durP2;ratioP2;P2;SDS_P1;SDS_P2;PMS_P1;PMS_P2;Temp;Humidity;BMP_temperature;BMP_pressure;BME280_temperature;BME280_humidity;BME280_pressure;Samples;Min_cycle;Max_cycle;Signal;HPM_P1;HPM_P2
2022/05/08 00:00:58;;;;;;;17.20;7.90;;;;;;;10.32;50.42;99578.69;107089;1260;22828;-82
2022/05/08 00:03:45;;;;;;;12.70;5.70;;;;;;;10.31;50.32;99575.77;107385;1258;22532;-79
2022/05/08 00:06:52;;;;;;;14.10;4.80;;;;;;;10.43;50.75;99572.30;107228;1258;24527;-84
2022/05/08 00:09:32;;;;;;;12.60;5.10;;;;;;;10.79;50.82;99570.69;107315;1258;22960;-79
2022/05/08 00:12:01;;;;;;;11.50;5.10;;;;;;;11.01;50.55;99570.31;107252;1260;25275;-78
2022/05/08 00:14:29;;;;;;;10.60;4.70;;;;;;;11.10;50.70;99567.25;107443;1254;22530;-83
2022/05/08 00:16:56;;;;;;;11.10;5.40;;;;;;;11.08;50.48;99566.35;107677;1255;25226;-80
2022/05/08 00:20:05;;;;;;;15.00;6.10;;;;;;;11.01;50.18;99569.66;107579;1254;22525;-85
2022/05/08 00:22:33;;;;;;;13.20;5.70;;;;;;;10.87;50.57;99566.65;107848;1253;22981;-85
2022/05/08 00:25:06;;;;;;;11.50;6.00;;;;;;;10.75;50.45;99564.20;107849;1254;25236;-78
2022/05/08 00:27:35;;;;;;;13.80;6.50;;;;;;;10.66;50.67;99566.75;107855;1254;24342;-86
2022/05/08 00:30:22;;;;;;;12.50;6.30;;;;;;;10.57;50.82;99565.21;107919;1252;24382;-84
2022/05/08 00:33:09;;;;;;;14.40;6.40;;;;;;;10.52;51.16;99565.19;108016;1252;22631;-80
2022/05/08 00:35:38;;;;;;;14.00;7.00;;;;;;;10.50;51.22;99561.91;107806;1256;22723;-79
2022/05/08 00:38:24;;;;;;;15.90;7.30;;;;;;;10.46;51.08;99563.91;107664;1255;24197;-85
2022/05/08 00:41:03;;;;;;;16.80;7.50;;;;;;;10.40;51.49;99565.41;107791;1254;22531;-77
2022/05/08 00:43:36;;;;;;;15.90;7.30;;;;;;;10.32;51.49;99562.15;107567;1252;22529;-85
2022/05/08 00:46:08;;;;;;;18.00;7.60;;;;;;;10.13;51.60;99560.98;107968;1254;22546;-78
2022/05/08 00:48:41;;;;;;;17.30;8.00;;;;;;;9.95;51.59;99561.39;107829;1252;24809;-85
2022/05/08 00:51:15;;;;;;;17.20;9.10;;;;;;;9.85;51.90;99559.52;107811;1254;25237;-79
2022/05/08 00:53:52;;;;;;;16.30;8.10;;;;;;;9.77;51.93;99560.55;107893;1252;22684;-78
2022/05/08 00:56:43;;;;;;;17.90;8.20;;;;;;;9.69;51.95;99562.13;107888;1253;22685;-83
2022/05/08 00:59:13;;;;;;;18.00;8.00;;;;;;;9.63;52.07;99559.08;107840;1253;22699;-81
2022/05/08 01:02:43;;;;;;;13.60;6.70;;;;;;;9.64;51.94;99557.95;107858;1252;22884;-82
2022/05/08 01:05:11;;;;;;;15.40;8.30;;;;;;;9.68;52.12;99557.73;107083;1260;22543;-79
2022/05/08 01:07:37;;;;;;;18.60;8.90;;;;;;;9.67;52.03;99561.16;107185;1259;24073;-80
2022/05/08 01:10:09;;;;;;;19.90;9.30;;;;;;;9.61;52.20;99562.42;107274;1259;22519;-81
2022/05/08 01:12:44;;;;;;;21.10;9.70;;;;;;;9.55;52.24;99561.72;106980;1259;24315;-81
2022/05/08 01:15:20;;;;;;;22.80;10.00;;;;;;;9.46;52.34;99564.89;107234;1260;24140;-79
2022/05/08 01:17:49;;;;;;;19.50;8.90;;;;;;;9.40;52.71;99564.40;107144;1259;24407;-81
2022/05/08 01:20:15;;;;;;;19.50;9.70;;;;;;;9.30;52.81;99567.27;107092;1260;23912;-80
2022/05/08 01:23:05;;;;;;;;;;;;;;;;;;;;;
2022/05/08 01:26:04;;;;;;;20.20;9.30;;;;;;;9.12;53.07;99564.96;107435;1260;22549;-85
2022/05/08 01:28:38;;;;;;;15.50;7.70;;;;;;;9.04;53.11;99566.13;107065;1260;22580;-85
2022/05/08 01:31:35;;;;;;;19.80;9.00;;;;;;;8.97;53.28;99574.36;107127;1260;22843;-85
2022/05/08 01:34:06;;;;;;;17.80;8.10;;;;;;;9.01;53.44;99573.81;107186;1260;24232;-78
2022/05/08 01:36:35;;;;;;;21.80;9.00;;;;;;;9.07;53.26;99570.39;106952;1260;24349;-82
2022/05/08 01:39:21;;;;;;;21.90;8.30;;;;;;;9.10;53.38;99566.31;107118;1260;22842;-82
2022/05/08 01:41:48;;;;;;;17.20;8.60;;;;;;;9.03;53.45;99569.73;107451;1252;25271;-79
2022/05/08 01:44:27;;;;;;;;;;;;;;;;;;;;;
2022/05/08 01:50:15;;;;;;;15.50;8.30;;;;;;;8.88;53.55;99565.10;107110;1260;22533;-86
2022/05/08 01:52:51;;;;;;;20.70;9.10;;;;;;;8.85;53.54;99562.45;107425;1258;24241;-79
2022/05/08 01:55:54;;;;;;;;;;;;;;;;;;;;;
2022/05/08 01:59:37;;;;;;;20.30;7.90;;;;;;;8.76;54.20;99571.50;107203;1259;22523;-81
2022/05/08 02:02:06;;;;;;;18.60;8.00;;;;;;;8.76;54.20;99573.95;106339;1269;25552;-79
2022/05/08 02:04:32;;;;;;;16.90;7.90;;;;;;;8.79;54.18;99572.04;106320;1268;24405;-86
2022/05/08 02:07:03;;;;;;;14.90;8.30;;;;;;;8.78;54.03;99571.35;106338;1272;22686;-82
2022/05/08 02:09:52;;;;;;;19.70;8.20;;;;;;;8.76;54.28;99571.66;106457;1268;22810;-84
2022/05/08 02:12:18;;;;;;;16.90;9.40;;;;;;;8.73;54.22;99572.39;106377;1268;25470;-78
2022/05/08 02:14:59;;;;;;;17.70;8.20;;;;;;;8.69;54.28;99571.51;106311;1269;22555;-82
2022/05/08 02:17:28;;;;;;;15.40;8.60;;;;;;;8.61;54.37;99570.36;106362;1269;25360;-78
2022/05/08 02:20:24;;;;;;;19.30;8.90;;;;;;;8.56;54.50;99569.55;106360;1268;25486;-85
2022/05/08 02:23:29;;;;;;;17.00;8.70;;;;;;;8.54;54.53;99566.52;106520;1268;22668;-81
2022/05/08 02:26:05;;;;;;;16.40;8.60;;;;;;;8.54;54.61;99565.77;106504;1268;22532;-81
2022/05/08 02:28:52;;;;;;;;;;;;;;;;;;;;;
2022/05/08 02:31:35;;;;;;;;;;;;;;;;;;;;;
2022/05/08 02:34:20;;;;;;;22.30;9.50;;;;;;;8.51;55.05;99577.31;106720;1263;22541;-80
2022/05/08 02:37:17;;;;;;;15.90;8.20;;;;;;;8.46;55.19;99575.48;106767;1263;25415;-80
2022/05/08 02:39:48;;;;;;;15.50;8.10;;;;;;;8.39;55.11;99576.18;107016;1261;25572;-84
2022/05/08 02:42:39;;;;;;;16.60;8.20;;;;;;;8.35;55.04;99578.89;107305;1260;22521;-83
2022/05/08 02:45:20;;;;;;;18.30;8.80;;;;;;;8.30;55.06;99577.52;107025;1259;24381;-80
2022/05/08 02:47:49;;;;;;;18.80;9.20;;;;;;;8.25;55.04;99576.75;107153;1258;22660;-78
2022/05/08 02:50:18;;;;;;;18.20;9.30;;;;;;;8.24;55.10;99580.19;107044;1258;22702;-84
2022/05/08 02:52:50;;;;;;;16.20;9.50;;;;;;;8.24;55.10;99580.00;107130;1260;22605;-81
2022/05/08 02:58:43;;;;;;;;;;;;;;;;;;;;;
2022/05/08 03:01:33;;;;;;;18.40;9.00;;;;;;;8.34;55.34;99581.94;107507;1254;22522;-82
2022/05/08 03:04:23;;;;;;;17.40;9.10;;;;;;;8.38;55.52;99583.31;107855;1252;22690;-82
2022/05/08 03:07:34;;;;;;;17.40;8.50;;;;;;;8.38;55.49;99584.20;107864;1252;24264;-81
2022/05/08 03:10:04;;;;;;;17.00;8.20;;;;;;;8.37;55.58;99586.58;108171;1252;25329;-80
2022/05/08 03:12:51;;;;;;;18.90;9.00;;;;;;;8.34;55.53;99587.64;107535;1254;24259;-78
2022/05/08 03:15:24;;;;;;;14.80;7.50;;;;;;;8.30;55.72;99589.59;107827;1252;24234;-82
2022/05/08 03:17:53;;;;;;;14.30;7.50;;;;;;;8.25;55.64;99589.67;107870;1254;25583;-83
2022/05/08 03:20:25;;;;;;;15.60;8.30;;;;;;;8.22;55.81;99589.52;107990;1252;22685;-78
2022/05/08 03:23:02;;;;;;;12.60;7.40;;;;;;;8.22;56.11;99587.54;107637;1255;22534;-78
2022/05/08 03:25:41;;;;;;;15.90;7.50;;;;;;;8.27;56.22;99590.33;107509;1257;24168;-78
2022/05/08 03:28:35;;;;;;;16.10;7.80;;;;;;;8.34;56.06;99589.77;107342;1257;25589;-77
2022/05/08 03:31:29;;;;;;;16.60;7.70;;;;;;;8.38;55.93;99585.98;107736;1252;22537;-78
2022/05/08 03:34:17;;;;;;;16.00;7.60;;;;;;;8.36;56.01;99583.81;107795;1252;25465;-77
2022/05/08 03:37:35;;;;;;;15.60;8.00;;;;;;;8.33;55.94;99585.35;107802;1252;22680;-78
2022/05/08 03:39:57;;;;;;;14.40;7.80;;;;;;;8.36;56.09;99587.19;107513;1257;22604;-78
2022/05/08 03:42:33;;;;;;;15.30;7.50;;;;;;;8.38;56.37;99589.70;107509;1253;22543;-78
2022/05/08 03:45:06;;;;;;;16.20;8.50;;;;;;;8.39;56.22;99590.55;108233;1252;25566;-79
2022/05/08 03:48:06;;;;;;;15.90;9.10;;;;;;;8.41;56.20;99593.49;107725;1254;22527;-78
2022/05/08 03:51:19;;;;;;;16.40;7.70;;;;;;;8.48;56.26;99592.05;107719;1257;24131;-79
2022/05/08 03:57:08;;;;;;;15.00;6.90;;;;;;;8.98;56.16;99592.41;107890;1252;22549;-79
2022/05/08 04:00:15;;;;;;;14.90;7.40;;;;;;;9.23;56.06;99588.33;107353;1256;24296;-80
2022/05/08 04:03:02;;;;;;;14.70;6.90;;;;;;;9.54;56.14;99588.62;107764;1252;22519;-78
2022/05/08 04:05:32;;;;;;;15.50;7.50;;;;;;;9.86;56.12;99586.48;107505;1254;23930;-78
2022/05/08 04:08:04;;;;;;;15.70;7.00;;;;;;;10.11;55.85;99586.73;107542;1255;24248;-78
2022/05/08 04:10:43;;;;;;;16.60;7.90;;;;;;;10.25;55.61;99588.42;107682;1255;22520;-79
2022/05/08 04:13:22;;;;;;;16.30;8.10;;;;;;;10.32;55.46;99587.79;107398;1252;24268;-79
2022/05/08 04:19:02;;;;;;;17.10;8.50;;;;;;;10.53;55.68;99585.91;107824;1252;24209;-79
2022/05/08 04:21:39;;;;;;;16.40;8.30;;;;;;;10.62;55.57;99583.05;107800;1257;22534;-78
2022/05/08 04:24:21;;;;;;;15.90;8.50;;;;;;;10.68;55.88;99584.27;107413;1258;22534;-80
2022/05/08 04:26:48;;;;;;;16.90;8.40;;;;;;;10.75;55.63;99580.77;107767;1256;22521;-81
2022/05/08 04:29:24;;;;;;;12.40;6.80;;;;;;;10.84;55.79;99587.11;107828;1252;25334;-80
2022/05/08 04:31:53;;;;;;;12.50;6.00;;;;;;;10.94;55.87;99586.14;107728;1255;24237;-84
2022/05/08 04:34:53;;;;;;;;;;;;;;;;;;;;;
2022/05/08 04:37:27;;;;;;;20.00;7.90;;;;;;;11.22;55.99;99606.89;107803;1257;22530;-81
2022/05/08 04:39:53;;;;;;;14.90;6.80;;;;;;;11.36;55.84;99605.48;107393;1252;25626;-81
2022/05/08 04:42:20;;;;;;;13.40;6.60;;;;;;;11.55;55.75;99607.91;107811;1252;22695;-84
2022/05/08 04:44:49;;;;;;;12.70;5.90;;;;;;;11.74;55.50;99609.69;107826;1255;25317;-80
2022/05/08 04:47:17;;;;;;;9.60;5.10;;;;;;;11.93;55.37;99611.09;107625;1256;25745;-81
2022/05/08 04:50:09;;;;;;;9.50;4.40;;;;;;;12.11;55.25;99608.89;107825;1256;22835;-81
2022/05/08 04:52:35;;;;;;;10.90;5.40;;;;;;;12.32;55.14;99610.70;107901;1252;24189;-82
2022/05/08 04:55:03;;;;;;;9.10;4.80;;;;;;;12.52;55.12;99616.59;107808;1255;25403;-80
2022/05/08 04:57:30;;;;;;;9.40;4.70;;;;;;;12.76;55.00;99618.93;107782;1255;24372;-81
2022/05/08 04:59:57;;;;;;;10.60;4.70;;;;;;;12.99;54.97;99626.39;107456;1257;22543;-82
2022/05/08 05:02:24;;;;;;;10.60;4.50;;;;;;;13.24;54.77;99625.65;107815;1256;22531;-85
2022/05/08 05:04:50;;;;;;;9.50;4.50;;;;;;;13.45;54.62;99627.13;107673;1252;26708;-84
2022/05/08 05:07:19;;;;;;;10.70;4.40;;;;;;;13.62;54.45;99623.48;107882;1252;22535;-83
2022/05/08 05:09:46;;;;;;;8.40;4.00;;;;;;;13.77;54.38;99621.14;107977;1255;22927;-81
2022/05/08 05:12:12;;;;;;;9.10;3.80;;;;;;;13.92;54.09;99622.86;107935;1252;22813;-86
2022/05/08 05:14:38;;;;;;;9.20;3.90;;;;;;;14.08;54.03;99624.61;107807;1252;22536;-87
2022/05/08 05:17:05;;;;;;;10.10;3.80;;;;;;;14.25;54.02;99630.97;107809;1253;23291;-83
2022/05/08 05:19:31;;;;;;;8.20;3.80;;;;;;;14.54;54.13;99627.48;107847;1255;22569;-81
2022/05/08 05:22:06;;;;;;;8.60;4.00;;;;;;;14.78;54.11;99629.84;107842;1255;22524;-85
2022/05/08 05:24:32;;;;;;;8.90;3.30;;;;;;;15.06;53.93;99624.70;107838;1255;22676;-82
2022/05/08 05:26:59;;;;;;;8.70;3.30;;;;;;;15.36;53.71;99629.48;107786;1255;24129;-81
2022/05/08 05:29:26;;;;;;;8.20;3.50;;;;;;;15.65;53.64;99628.14;108056;1252;22686;-82
2022/05/08 05:31:52;;;;;;;8.10;3.20;;;;;;;16.00;53.39;99629.96;107984;1252;25227;-85
2022/05/08 05:34:18;;;;;;;8.40;2.90;;;;;;;16.30;53.06;99631.92;107821;1255;25299;-81
2022/05/08 05:36:47;;;;;;;9.00;2.70;;;;;;;16.44;52.52;99635.89;107886;1252;22539;-87
2022/05/08 05:39:13;;;;;;;7.90;3.10;;;;;;;16.52;52.40;99636.30;107789;1255;24369;-85
2022/05/08 05:41:40;;;;;;;6.90;2.90;;;;;;;16.72;52.26;99634.88;107926;1252;24276;-81
2022/05/08 05:44:06;;;;;;;8.40;3.20;;;;;;;16.93;52.20;99630.14;107911;1252;25164;-82
2022/05/08 05:49:20;;;;;;;7.40;3.30;;;;;;;17.90;52.34;99626.72;107839;1255;25236;-85
2022/05/08 05:51:46;;;;;;;8.00;2.90;;;;;;;18.07;52.25;99631.55;107905;1252;22542;-81
2022/05/08 05:54:13;;;;;;;7.40;3.50;;;;;;;18.00;51.84;99630.47;107899;1252;24256;-79
2022/05/08 05:56:41;;;;;;;6.90;2.70;;;;;;;17.77;52.19;99631.02;107666;1255;22598;-79
2022/05/08 05:59:08;;;;;;;7.40;2.80;;;;;;;17.49;52.26;99636.91;107471;1252;22559;-80
2022/05/08 06:01:35;;;;;;;8.00;4.00;;;;;;;17.27;52.24;99638.58;107803;1252;25413;-81
2022/05/08 06:04:02;;;;;;;7.40;3.80;;;;;;;17.27;52.38;99645.06;107800;1255;22549;-79
2022/05/08 06:06:29;;;;;;;9.70;3.80;;;;;;;17.56;52.62;99645.67;107707;1255;25222;-80
2022/05/08 06:08:58;;;;;;;7.60;3.80;;;;;;;17.92;52.46;99644.69;107818;1252;23334;-80
2022/05/08 06:11:25;;;;;;;7.90;3.40;;;;;;;18.19;52.27;99646.48;107518;1255;25986;-80
2022/05/08 06:13:51;;;;;;;9.80;4.30;;;;;;;18.18;52.16;99647.48;107499;1252;24178;-79
2022/05/08 06:16:18;;;;;;;8.60;3.70;;;;;;;18.11;52.10;99649.45;107934;1252;22557;-80
2022/05/08 06:18:50;;;;;;;9.60;4.20;;;;;;;18.08;52.13;99646.82;107563;1255;22762;-80
2022/05/08 06:21:17;;;;;;;8.20;3.90;;;;;;;18.43;52.38;99646.89;107586;1255;25273;-81
2022/05/08 06:23:45;;;;;;;9.80;4.30;;;;;;;18.76;52.12;99648.42;107517;1255;22553;-81
2022/05/08 06:26:15;;;;;;;9.30;4.20;;;;;;;19.01;51.62;99648.50;107594;1255;26631;-79
2022/05/08 06:28:45;;;;;;;10.00;4.10;;;;;;;19.23;51.65;99648.72;107563;1252;22545;-79
2022/05/08 06:31:17;;;;;;;9.40;4.70;;;;;;;19.48;51.69;99651.26;107548;1255;25353;-81
2022/05/08 06:33:45;;;;;;;7.90;3.70;;;;;;;19.75;51.45;99651.70;107700;1255;23905;-80
2022/05/08 06:36:12;;;;;;;10.60;5.30;;;;;;;19.88;50.99;99648.86;107495;1257;22646;-81
2022/05/08 06:38:39;;;;;;;9.00;4.20;;;;;;;19.77;51.21;99652.73;107545;1255;25350;-80
2022/05/08 06:41:05;;;;;;;10.60;5.10;;;;;;;19.51;51.13;99656.23;107869;1252;24219;-82
2022/05/08 06:43:32;;;;;;;8.80;4.80;;;;;;;19.22;50.90;99657.31;107966;1252;22792;-83
2022/05/08 06:45:58;;;;;;;10.10;5.30;;;;;;;18.82;51.16;99658.90;108189;1252;22671;-81
2022/05/08 06:48:27;;;;;;;10.60;4.90;;;;;;;18.62;51.35;99660.35;108220;1252;25498;-83
2022/05/08 06:50:53;;;;;;;10.80;5.30;;;;;;;18.69;51.61;99660.27;107870;1253;24182;-85
2022/05/08 06:53:19;;;;;;;10.90;5.80;;;;;;;18.80;51.52;99663.73;107971;1252;25222;-79
2022/05/08 06:55:45;;;;;;;11.00;5.20;;;;;;;18.91;51.47;99659.98;107639;1252;24202;-80
2022/05/08 07:01:34;;;;;;;10.40;5.50;;;;;;;18.92;51.42;99661.65;107952;1252;25463;-87
2022/05/08 07:01:41;;;;;;;9.20;5.30;;;;;;;19.20;51.43;99664.02;108579;1252;24059;-86
2022/05/08 07:04:09;;;;;;;11.80;5.20;;;;;;;19.40;51.56;99661.41;107992;1252;23464;-88
2022/05/08 07:06:38;;;;;;;10.40;5.00;;;;;;;19.67;51.44;99664.02;108116;1252;23228;-81
2022/05/08 07:09:05;;;;;;;9.60;4.60;;;;;;;19.87;51.16;99659.83;107994;1252;22553;-81
2022/05/08 07:11:32;;;;;;;11.40;5.60;;;;;;;20.03;51.34;99662.48;107966;1252;24422;-88
2022/05/08 07:14:05;;;;;;;11.50;5.30;;;;;;;20.29;51.37;99665.85;107949;1251;25384;-81
2022/05/08 07:16:32;;;;;;;11.40;6.70;;;;;;;20.41;50.78;99661.54;108373;1252;25433;-84
2022/05/08 07:18:59;;;;;;;10.40;5.60;;;;;;;20.47;51.00;99663.50;107832;1255;22535;-84
2022/05/08 07:21:26;;;;;;;12.00;5.90;;;;;;;20.51;50.92;99661.25;107760;1252;25302;-82
2022/05/08 07:23:52;;;;;;;10.10;5.40;;;;;;;20.44;50.73;99665.25;107974;1252;22515;-84
2022/05/08 07:26:18;;;;;;;9.40;5.50;;;;;;;20.40;50.65;99667.55;107723;1252;22544;-88
2022/05/08 07:28:48;;;;;;;11.50;6.10;;;;;;;20.36;50.89;99669.61;108310;1252;22518;-83
2022/05/08 07:31:16;;;;;;;10.10;5.30;;;;;;;20.45;50.75;99669.11;107838;1252;22682;-82
2022/05/08 07:37:15;;;;;;;9.80;5.80;;;;;;;20.54;50.65;99664.59;108263;1251;22794;-87
2022/05/08 07:39:44;;;;;;;9.60;5.20;;;;;;;20.54;50.79;99664.39;107823;1252;23036;-83
2022/05/08 07:42:11;;;;;;;8.90;4.80;;;;;;;20.58;50.75;99667.38;108116;1251;25428;-81
2022/05/08 07:44:42;;;;;;;9.70;4.60;;;;;;;20.62;50.45;99666.98;108092;1252;22635;-80
2022/05/08 07:47:14;;;;;;;9.50;4.70;;;;;;;20.64;50.44;99666.05;103809;1255;5466208;-82
2022/05/08 07:49:40;;;;;;;9.90;5.00;;;;;;;20.79;50.78;99670.05;107914;1252;22952;-82
2022/05/08 07:52:10;;;;;;;10.60;5.00;;;;;;;20.89;50.61;99672.34;107923;1252;24342;-82
2022/05/08 07:55:01;;;;;;;;;;;;;;;;;;;;;
2022/05/08 07:57:30;;;;;;;13.20;5.90;;;;;;;21.08;49.91;99676.80;108421;1252;22571;-82
2022/05/08 07:59:57;;;;;;;9.60;5.10;;;;;;;21.06;50.11;99676.61;107855;1253;25520;-82
2022/05/08 08:02:25;;;;;;;10.70;6.20;;;;;;;21.09;50.21;99679.37;108434;1252;24326;-83
2022/05/08 08:05:13;;;;;;;9.60;5.20;;;;;;;21.19;49.88;99678.73;108423;1252;22693;-82
2022/05/08 08:07:47;;;;;;;10.60;4.90;;;;;;;21.14;49.89;99676.00;108010;1252;22671;-84
2022/05/08 08:10:19;;;;;;;11.40;6.50;;;;;;;21.14;49.84;99676.38;107912;1251;24152;-81
2022/05/08 08:12:45;;;;;;;10.10;5.40;;;;;;;21.31;49.82;99676.69;108097;1252;22634;-82
2022/05/08 08:15:12;;;;;;;11.80;5.20;;;;;;;21.49;49.94;99675.70;108017;1252;22615;-80
2022/05/08 08:17:58;;;;;;;10.30;5.40;;;;;;;21.62;49.58;99680.64;107886;1252;22528;-84
2022/05/08 08:20:24;;;;;;;11.20;5.30;;;;;;;21.77;49.76;99686.41;107864;1252;25236;-81
2022/05/08 08:22:52;;;;;;;9.50;5.30;;;;;;;21.90;49.43;99687.70;108819;1252;24342;-80
2022/05/08 08:25:22;;;;;;;12.90;5.90;;;;;;;22.04;49.39;99688.39;108291;1252;22598;-88
2022/05/08 08:27:48;;;;;;;11.10;6.50;;;;;;;22.08;49.07;99681.85;108568;1252;25654;-84
2022/05/08 08:30:15;;;;;;;13.80;7.90;;;;;;;22.09;49.43;99682.09;108425;1252;22533;-81
2022/05/08 08:32:41;;;;;;;11.40;6.90;;;;;;;22.13;49.46;99687.20;108210;1252;22521;-84
2022/05/08 08:35:08;;;;;;;14.90;7.20;;;;;;;22.23;49.20;99688.29;108113;1252;22936;-80
2022/05/08 08:37:41;;;;;;;10.60;6.70;;;;;;;22.18;49.02;99690.88;108296;1252;22529;-82
2022/05/08 08:40:08;;;;;;;13.20;7.30;;;;;;;22.20;49.27;99694.67;107878;1252;24126;-80
2022/05/08 08:42:53;;;;;;;14.50;7.50;;;;;;;22.26;49.22;99699.89;108002;1252;22544;-82
2022/05/08 08:48:32;;;;;;;12.40;7.30;;;;;;;22.08;49.12;99715.23;107743;1252;24389;-82
2022/05/08 08:51:00;;;;;;;13.00;6.70;;;;;;;22.08;48.69;99714.55;107989;1252;25482;-81
2022/05/08 08:53:28;;;;;;;11.20;6.70;;;;;;;21.86;48.64;99714.72;107939;1252;22658;-83
2022/05/08 08:55:59;;;;;;;12.60;7.20;;;;;;;21.68;48.59;99714.59;107762;1254;22518;-83
2022/05/08 08:58:26;;;;;;;10.10;6.40;;;;;;;21.55;48.96;99720.13;107687;1252;23933;-81
2022/05/08 09:00:52;;;;;;;12.50;6.90;;;;;;;21.56;49.25;99724.41;107960;1252;22479;-81
2022/05/08 09:03:27;;;;;;;11.70;7.20;;;;;;;21.64;48.76;99724.61;108078;1251;24387;-88
2022/05/08 09:05:57;;;;;;;12.30;7.10;;;;;;;21.62;48.70;99721.88;107901;1252;22567;-84
2022/05/08 09:08:29;;;;;;;13.50;6.40;;;;;;;21.69;48.87;99725.70;107809;1254;22671;-81
2022/05/08 09:10:58;;;;;;;9.70;5.60;;;;;;;21.73;48.58;99728.30;107887;1253;24183;-81
2022/05/08 09:13:29;;;;;;;12.00;6.20;;;;;;;21.74;48.76;99727.46;108080;1252;22518;-85
2022/05/08 09:16:05;;;;;;;11.00;7.00;;;;;;;21.81;48.71;99729.59;107879;1252;24204;-86
2022/05/08 09:18:53;;;;;;;12.60;7.50;;;;;;;21.81;48.35;99735.91;107796;1252;22529;-85
2022/05/08 09:24:13;;;;;;;12.20;7.40;;;;;;;21.72;48.46;99734.55;108236;1252;23447;-80
2022/05/08 09:26:40;;;;;;;12.40;6.50;;;;;;;21.77;48.95;99737.84;108500;1252;25222;-87
2022/05/08 09:29:07;;;;;;;14.00;7.90;;;;;;;21.79;48.44;99737.12;109137;1251;25227;-80
2022/05/08 09:31:43;;;;;;;14.80;6.90;;;;;;;21.76;48.79;99734.09;107510;1252;24167;-83
2022/05/08 09:34:09;;;;;;;11.80;6.80;;;;;;;21.98;48.90;99737.80;107971;1250;24261;-86
2022/05/08 09:37:08;;;;;;;10.20;5.50;;;;;;;21.97;48.58;99736.25;107876;1252;22993;-82
2022/05/08 09:39:34;;;;;;;13.50;7.40;;;;;;;22.19;48.88;99734.98;108479;1252;22524;-83
2022/05/08 09:42:01;;;;;;;10.90;6.20;;;;;;;22.24;48.40;99737.27;108738;1251;24220;-83
2022/05/08 09:44:27;;;;;;;10.30;6.40;;;;;;;22.15;48.47;99732.84;108103;1252;25219;-84
2022/05/08 09:46:54;;;;;;;10.70;6.50;;;;;;;22.19;48.54;99735.32;108032;1252;22505;-84
2022/05/08 09:49:53;;;;;;;12.90;7.90;;;;;;;22.22;48.60;99734.23;108216;1252;22933;-81
2022/05/08 09:52:24;;;;;;;10.00;6.60;;;;;;;22.32;49.00;99724.81;108299;1252;23105;-81
2022/05/08 09:54:53;;;;;;;12.40;6.30;;;;;;;22.48;48.74;99723.02;108986;1252;23687;-79
2022/05/08 09:57:28;;;;;;;10.60;6.00;;;;;;;22.51;48.16;99719.38;107541;1252;25225;-85
2022/05/08 09:59:59;;;;;;;10.70;5.90;;;;;;;22.43;48.07;99725.56;108068;1252;23248;-81
2022/05/08 10:02:31;;;;;;;8.80;5.40;;;;;;;22.43;48.30;99723.80;108191;1252;22687;-81
2022/05/08 10:05:25;;;;;;;10.50;6.40;;;;;;;22.42;48.10;99721.77;108053;1252;22550;-80
2022/05/08 10:07:54;;;;;;;12.10;5.80;;;;;;;22.61;48.39;99722.33;108218;1252;24254;-80
2022/05/08 10:15:56;;;;;;;10.70;6.70;;;;;;;22.98;47.80;99713.62;108430;1254;23054;-85
2022/05/08 10:18:28;;;;;;;10.60;5.90;;;;;;;22.94;47.64;99710.02;108102;1254;23335;-80
2022/05/08 10:21:04;;;;;;;9.10;4.90;;;;;;;22.97;47.79;99708.30;107640;1256;24231;-80
2022/05/08 10:23:54;;;;;;;11.10;5.00;;;;;;;23.11;47.70;99708.13;107899;1255;25286;-80
2022/05/08 10:26:23;;;;;;;10.20;5.50;;;;;;;23.08;47.47;99710.96;107113;1258;24088;-84
2022/05/08 10:29:12;;;;;;;10.70;5.80;;;;;;;23.21;48.03;99707.27;107510;1258;25262;-84
2022/05/08 10:31:48;;;;;;;11.90;5.20;;;;;;;23.62;48.05;99711.81;107175;1258;26434;-86
2022/05/08 10:34:28;;;;;;;9.80;4.30;;;;;;;23.56;47.38;99710.92;107327;1258;22606;-83
2022/05/08 10:37:28;;;;;;;11.80;5.20;;;;;;;23.53;47.40;99710.71;107425;1258;22528;-82
2022/05/08 10:39:55;;;;;;;8.60;4.20;;;;;;;23.60;47.00;99709.56;107043;1265;22701;-81
2022/05/08 10:42:24;;;;;;;10.40;5.00;;;;;;;23.46;46.90;99715.28;106863;1265;22823;-86
2022/05/08 10:45:34;;;;;;;10.00;5.10;;;;;;;23.39;47.16;99713.95;107380;1265;22672;-80
2022/05/08 10:48:04;;;;;;;8.90;4.70;;;;;;;23.39;46.93;99715.75;107137;1265;23270;-82
2022/05/08 10:50:30;;;;;;;8.70;4.20;;;;;;;23.28;46.68;99715.76;107082;1265;23920;-82
2022/05/08 10:52:58;;;;;;;9.00;4.80;;;;;;;23.17;46.65;99711.20;106814;1266;22622;-81
2022/05/08 10:55:27;;;;;;;8.60;5.10;;;;;;;23.08;46.52;99716.66;106918;1266;22995;-82
2022/05/08 10:57:55;;;;;;;9.60;5.90;;;;;;;23.03;46.81;99714.83;106837;1265;22693;-85
2022/05/08 11:00:26;;;;;;;8.60;5.10;;;;;;;23.19;47.04;99711.95;106890;1265;23939;-81
2022/05/08 11:02:57;;;;;;;9.40;5.50;;;;;;;23.26;46.66;99704.91;106697;1262;25304;-80
2022/05/08 11:05:31;;;;;;;9.80;4.50;;;;;;;23.32;46.90;99705.08;107219;1261;24305;-82
2022/05/08 11:08:10;;;;;;;14.30;6.10;;;;;;;23.54;46.40;99703.73;107476;1261;24398;-85
2022/05/08 11:11:30;;;;;;;11.90;5.10;;;;;;;23.46;45.97;99704.61;107439;1261;22680;-81
2022/05/08 11:14:03;;;;;;;10.50;5.30;;;;;;;23.77;46.53;99696.88;107205;1261;25231;-82
2022/05/08 11:17:26;;;;;;;9.70;5.70;;;;;;;23.89;46.03;99696.71;107935;1252;22557;-80
2022/05/08 11:20:11;;;;;;;10.60;6.00;;;;;;;23.68;45.91;99693.19;108759;1252;25038;-79
2022/05/08 11:23:10;;;;;;;12.40;7.00;;;;;;;23.65;46.56;99692.21;108867;1252;22640;-82
2022/05/08 11:25:55;;;;;;;8.20;4.50;;;;;;;23.81;46.28;99691.30;108465;1252;25242;-80
2022/05/08 11:28:27;;;;;;;10.00;6.10;;;;;;;23.93;45.85;99693.61;108060;1252;22955;-82
2022/05/08 11:31:12;;;;;;;10.00;5.60;;;;;;;24.05;45.86;99693.22;108297;1252;22681;-84
2022/05/08 11:37:01;;;;;;;8.20;4.00;;;;;;;24.21;44.96;99690.49;108371;1252;23388;-82
2022/05/08 11:39:31;;;;;;;10.50;5.10;;;;;;;24.05;45.73;99688.27;108566;1254;24232;-80
2022/05/08 11:41:57;;;;;;;9.60;5.80;;;;;;;24.20;45.99;99687.41;108343;1252;22518;-83
2022/05/08 11:44:24;;;;;;;16.20;12.10;;;;;;;24.50;46.04;99686.56;107853;1253;24189;-83
2022/05/08 11:47:00;;;;;;;15.30;10.80;;;;;;;24.73;45.53;99682.69;108010;1252;24251;-82
2022/05/08 11:49:40;;;;;;;10.30;5.00;;;;;;;24.75;45.42;99678.15;107850;1252;22527;-86
2022/05/08 11:52:37;;;;;;;8.20;3.70;;;;;;;24.93;45.26;99677.11;108510;1253;22534;-86
2022/05/08 11:55:08;;;;;;;9.00;3.80;;;;;;;25.00;45.03;99679.52;108457;1251;23839;-82
2022/05/08 11:57:43;;;;;;;6.50;3.20;;;;;;;25.04;44.85;99677.75;107898;1252;25529;-82
2022/05/08 12:00:51;;;;;;;7.50;3.40;;;;;;;25.17;45.10;99670.88;107967;1252;24240;-84
2022/05/08 12:03:27;;;;;;;8.20;3.90;;;;;;;25.37;44.69;99675.38;108433;1252;25585;-80
2022/05/08 12:06:13;;;;;;;8.20;4.10;;;;;;;24.97;44.64;99672.98;107975;1252;25368;-83
2022/05/08 12:08:39;;;;;;;9.80;3.80;;;;;;;24.47;44.55;99674.09;107755;1252;25599;-85
2022/05/08 12:11:27;;;;;;;6.70;3.30;;;;;;;24.17;44.78;99668.63;107908;1252;24702;-86
2022/05/08 12:14:30;;;;;;;6.80;3.50;;;;;;;24.27;45.51;99668.94;107926;1252;25231;-84
2022/05/08 12:17:01;;;;;;;5.80;2.60;;;;;;;24.68;44.91;99666.11;108015;1252;22685;-80
2022/05/08 12:19:28;;;;;;;7.60;3.10;;;;;;;24.64;44.89;99664.65;107998;1252;25399;-85
2022/05/08 12:21:54;;;;;;;8.00;3.70;;;;;;;24.60;44.78;99661.02;108417;1252;22547;-81
2022/05/08 12:24:22;;;;;;;7.90;3.60;;;;;;;24.73;44.65;99661.34;107976;1251;25685;-80
2022/05/08 12:26:48;;;;;;;8.10;3.50;;;;;;;24.46;44.51;99665.91;108426;1252;22317;-81
2022/05/08 12:29:23;;;;;;;7.40;3.20;;;;;;;24.17;44.68;99663.52;107986;1252;22679;-81
2022/05/08 12:31:54;;;;;;;7.60;3.30;;;;;;;23.86;44.82;99668.84;108065;1252;24048;-81
2022/05/08 12:34:21;;;;;;;8.70;3.10;;;;;;;23.66;44.04;99668.89;107991;1252;25194;-85
2022/05/08 12:36:48;;;;;;;8.40;3.40;;;;;;;23.38;44.21;99663.91;107734;1252;22473;-82
2022/05/08 12:39:16;;;;;;;6.40;2.80;;;;;;;23.53;45.03;99660.98;107999;1252;24338;-83
2022/05/08 12:41:53;;;;;;;;;;;;;;;;;;;;;
2022/05/08 12:44:23;;;;;;;8.40;3.90;;;;;;;23.89;43.44;99657.96;108089;1252;22547;-85
2022/05/08 12:46:51;;;;;;;21.20;13.60;;;;;;;23.87;43.98;99656.93;107892;1252;22615;-84